Haledon, New Jersey
Current Conditions -  °F | °C
As of 7:53 AM on Thursday 27 Nov 2014 (Local Time) from KCDW Reporting Station
Overcast Overcast  
Wind Chill: 34°   Ceiling: 5000
Heat Index: 34°   Visibility: 10mi
Dew Point: 29°   Wind: 0mph
Humidity: 82%   Direction: NA
Pressure: 29.98"   Gusts: NA
Location:  40.94°N, 74.18°W
Report Text: KCDW 271253Z AUTO 00000KT 10SM BKN050 OVC085 01/M02 A2998 RMK AO2 SLP160 T00111017 TSNO
Loading
Personal Weather Stations






























Interactive Weather Map New forecast layout! Learn more

10-Day Weather Forecast

Advertisements
Track Severe Weather on mobile